sensor_id;sensor_type;location;lat;lon;timestamp;P1;durP1;ratioP1;P2;durP2;ratioP2
52786;SDS011;38661;53.152;5.846;2023-02-21T00:01:15;27.65;;;10.02;;
52786;SDS011;38661;53.152;5.846;2023-02-21T00:03:59;23.88;;;8.85;;
52786;SDS011;38661;53.152;5.846;2023-02-21T00:06:44;21.20;;;9.82;;
52786;SDS011;38661;53.152;5.846;2023-02-21T00:12:13;20.73;;;9.80;;
52786;SDS011;38661;53.152;5.846;2023-02-21T00:14:57;19.30;;;9.10;;
52786;SDS011;38661;53.152;5.846;2023-02-21T00:17:41;19.67;;;9.82;;
52786;SDS011;38661;53.152;5.846;2023-02-21T00:20:25;21.20;;;9.35;;
52786;SDS011;38661;53.152;5.846;2023-02-21T00:23:09;17.98;;;7.65;;
52786;SDS011;38661;53.152;5.846;2023-02-21T00:25:54;22.80;;;6.97;;
52786;SDS011;38661;53.152;5.846;2023-02-21T00:28:38;15.60;;;7.20;;
52786;SDS011;38661;53.152;5.846;2023-02-21T00:31:22;19.48;;;7.95;;
52786;SDS011;38661;53.152;5.846;2023-02-21T00:34:06;19.13;;;7.85;;
52786;SDS011;38661;53.152;5.846;2023-02-21T00:36:51;17.60;;;7.30;;
52786;SDS011;38661;53.152;5.846;2023-02-21T00:39:36;17.92;;;7.57;;
52786;SDS011;38661;53.152;5.846;2023-02-21T00:42:20;17.92;;;7.88;;
52786;SDS011;38661;53.152;5.846;2023-02-21T00:45:04;19.70;;;7.20;;
52786;SDS011;38661;53.152;5.846;2023-02-21T00:47:49;21.83;;;8.35;;
52786;SDS011;38661;53.152;5.846;2023-02-21T00:50:33;22.80;;;9.02;;
52786;SDS011;38661;53.152;5.846;2023-02-21T00:53:17;18.40;;;8.35;;
52786;SDS011;38661;53.152;5.846;2023-02-21T00:56:01;20.83;;;9.73;;
52786;SDS011;38661;53.152;5.846;2023-02-21T00:58:45;19.52;;;11.68;;
52786;SDS011;38661;53.152;5.846;2023-02-21T01:01:30;20.45;;;9.38;;
52786;SDS011;38661;53.152;5.846;2023-02-21T01:04:14;19.77;;;11.50;;
52786;SDS011;38661;53.152;5.846;2023-02-21T01:06:58;22.67;;;11.77;;
52786;SDS011;38661;53.152;5.846;2023-02-21T01:09:42;17.27;;;9.88;;
52786;SDS011;38661;53.152;5.846;2023-02-21T01:12:26;26.13;;;11.77;;
52786;SDS011;38661;53.152;5.846;2023-02-21T01:15:10;26.75;;;13.02;;
52786;SDS011;38661;53.152;5.846;2023-02-21T01:17:54;27.02;;;10.73;;
52786;SDS011;38661;53.152;5.846;2023-02-21T01:20:38;21.10;;;12.05;;
52786;SDS011;38661;53.152;5.846;2023-02-21T01:23:22;17.50;;;9.80;;
52786;SDS011;38661;53.152;5.846;2023-02-21T01:26:07;27.85;;;10.35;;
52786;SDS011;38661;53.152;5.846;2023-02-21T01:28:52;25.10;;;11.75;;
52786;SDS011;38661;53.152;5.846;2023-02-21T01:31:37;26.10;;;11.95;;
52786;SDS011;38661;53.152;5.846;2023-02-21T01:34:21;21.63;;;11.65;;
52786;SDS011;38661;53.152;5.846;2023-02-21T01:37:05;28.05;;;11.90;;
52786;SDS011;38661;53.152;5.846;2023-02-21T01:39:49;25.58;;;11.70;;
52786;SDS011;38661;53.152;5.846;2023-02-21T01:42:33;23.73;;;11.93;;
52786;SDS011;38661;53.152;5.846;2023-02-21T01:45:31;23.55;;;11.10;;
52786;SDS011;38661;53.152;5.846;2023-02-21T01:48:30;32.72;;;11.82;;
52786;SDS011;38661;53.152;5.846;2023-02-21T01:51:18;22.92;;;11.95;;
52786;SDS011;38661;53.152;5.846;2023-02-21T01:54:07;27.13;;;11.02;;
52786;SDS011;38661;53.152;5.846;2023-02-21T01:56:52;25.08;;;11.48;;
52786;SDS011;38661;53.152;5.846;2023-02-21T01:59:38;28.38;;;13.48;;
52786;SDS011;38661;53.152;5.846;2023-02-21T02:05:26;27.58;;;13.30;;
52786;SDS011;38661;53.152;5.846;2023-02-21T02:08:11;27.35;;;12.82;;
52786;SDS011;38661;53.152;5.846;2023-02-21T02:11:07;26.92;;;12.60;;
52786;SDS011;38661;53.152;5.846;2023-02-21T02:28:38;27.45;;;11.98;;
52786;SDS011;38661;53.152;5.846;2023-02-21T02:42:38;26.08;;;11.55;;
52786;SDS011;38661;53.152;5.846;2023-02-21T02:47:51;24.52;;;11.27;;
52786;SDS011;38661;53.152;5.846;2023-02-21T02:50:21;22.65;;;12.43;;
52786;SDS011;38661;53.152;5.846;2023-02-21T02:52:51;26.92;;;13.38;;
52786;SDS011;38661;53.152;5.846;2023-02-21T02:55:39;22.55;;;12.68;;
52786;SDS011;38661;53.152;5.846;2023-02-21T02:58:08;23.05;;;12.63;;
52786;SDS011;38661;53.152;5.846;2023-02-21T03:00:36;23.40;;;12.25;;
52786;SDS011;38661;53.152;5.846;2023-02-21T03:03:21;27.27;;;13.32;;
52786;SDS011;38661;53.152;5.846;2023-02-21T03:08:52;24.30;;;12.93;;
52786;SDS011;38661;53.152;5.846;2023-02-21T03:11:32;29.92;;;13.10;;
52786;SDS011;38661;53.152;5.846;2023-02-21T03:16:41;26.15;;;15.48;;
52786;SDS011;38661;53.152;5.846;2023-02-21T03:19:12;29.08;;;15.13;;
52786;SDS011;38661;53.152;5.846;2023-02-21T03:21:57;28.60;;;14.57;;
52786;SDS011;38661;53.152;5.846;2023-02-21T03:24:26;30.98;;;14.80;;
52786;SDS011;38661;53.152;5.846;2023-02-21T03:26:58;35.33;;;16.42;;
52786;SDS011;38661;53.152;5.846;2023-02-21T03:29:27;32.90;;;17.25;;
52786;SDS011;38661;53.152;5.846;2023-02-21T03:31:54;34.30;;;18.27;;
52786;SDS011;38661;53.152;5.846;2023-02-21T03:34:34;30.00;;;16.98;;
52786;SDS011;38661;53.152;5.846;2023-02-21T03:37:03;29.73;;;17.55;;
52786;SDS011;38661;53.152;5.846;2023-02-21T03:39:32;36.38;;;17.90;;
52786;SDS011;38661;53.152;5.846;2023-02-21T03:41:58;31.23;;;16.73;;
52786;SDS011;38661;53.152;5.846;2023-02-21T03:44:24;31.80;;;18.58;;
52786;SDS011;38661;53.152;5.846;2023-02-21T03:46:50;31.10;;;17.30;;
52786;SDS011;38661;53.152;5.846;2023-02-21T03:49:15;36.75;;;18.52;;
52786;SDS011;38661;53.152;5.846;2023-02-21T03:51:41;37.35;;;19.38;;
52786;SDS011;38661;53.152;5.846;2023-02-21T03:54:07;33.67;;;18.95;;
52786;SDS011;38661;53.152;5.846;2023-02-21T03:56:32;35.22;;;17.98;;
52786;SDS011;38661;53.152;5.846;2023-02-21T03:58:58;33.55;;;18.25;;
52786;SDS011;38661;53.152;5.846;2023-02-21T04:01:24;38.00;;;20.38;;
52786;SDS011;38661;53.152;5.846;2023-02-21T04:03:49;31.55;;;17.35;;
52786;SDS011;38661;53.152;5.846;2023-02-21T04:06:16;32.95;;;17.42;;
52786;SDS011;38661;53.152;5.846;2023-02-21T04:08:41;36.22;;;18.92;;
52786;SDS011;38661;53.152;5.846;2023-02-21T04:11:07;34.83;;;19.92;;
52786;SDS011;38661;53.152;5.846;2023-02-21T04:13:33;32.20;;;19.30;;
52786;SDS011;38661;53.152;5.846;2023-02-21T04:15:58;32.88;;;17.77;;
52786;SDS011;38661;53.152;5.846;2023-02-21T04:18:24;38.58;;;18.30;;
52786;SDS011;38661;53.152;5.846;2023-02-21T04:20:50;28.17;;;15.85;;
52786;SDS011;38661;53.152;5.846;2023-02-21T04:23:17;33.55;;;17.77;;
52786;SDS011;38661;53.152;5.846;2023-02-21T04:25:44;32.78;;;19.75;;
52786;SDS011;38661;53.152;5.846;2023-02-21T04:28:10;35.72;;;17.60;;
52786;SDS011;38661;53.152;5.846;2023-02-21T04:30:35;30.90;;;16.45;;
52786;SDS011;38661;53.152;5.846;2023-02-21T04:33:01;31.35;;;17.77;;
52786;SDS011;38661;53.152;5.846;2023-02-21T04:35:27;31.95;;;18.50;;
52786;SDS011;38661;53.152;5.846;2023-02-21T04:37:53;31.75;;;16.33;;
52786;SDS011;38661;53.152;5.846;2023-02-21T04:40:19;34.67;;;18.48;;
52786;SDS011;38661;53.152;5.846;2023-02-21T04:42:45;30.98;;;17.42;;
52786;SDS011;38661;53.152;5.846;2023-02-21T04:45:10;33.67;;;18.48;;
52786;SDS011;38661;53.152;5.846;2023-02-21T04:47:36;33.67;;;17.90;;
52786;SDS011;38661;53.152;5.846;2023-02-21T04:50:03;32.72;;;16.70;;
52786;SDS011;38661;53.152;5.846;2023-02-21T04:52:29;31.85;;;17.45;;
52786;SDS011;38661;53.152;5.846;2023-02-21T04:54:55;30.95;;;16.88;;
52786;SDS011;38661;53.152;5.846;2023-02-21T04:57:20;33.83;;;17.90;;
52786;SDS011;38661;53.152;5.846;2023-02-21T04:59:46;39.50;;;20.17;;
52786;SDS011;38661;53.152;5.846;2023-02-21T05:02:12;33.00;;;18.02;;
52786;SDS011;38661;53.152;5.846;2023-02-21T05:04:38;36.35;;;19.48;;
52786;SDS011;38661;53.152;5.846;2023-02-21T05:07:03;35.28;;;17.10;;
52786;SDS011;38661;53.152;5.846;2023-02-21T05:09:30;34.45;;;18.52;;
52786;SDS011;38661;53.152;5.846;2023-02-21T05:11:56;36.80;;;20.08;;
52786;SDS011;38661;53.152;5.846;2023-02-21T05:14:21;32.08;;;18.35;;
52786;SDS011;38661;53.152;5.846;2023-02-21T05:16:47;34.60;;;19.50;;
52786;SDS011;38661;53.152;5.846;2023-02-21T05:19:17;43.45;;;21.17;;
52786;SDS011;38661;53.152;5.846;2023-02-21T05:21:51;30.73;;;17.92;;
52786;SDS011;38661;53.152;5.846;2023-02-21T05:24:21;38.33;;;19.50;;
52786;SDS011;38661;53.152;5.846;2023-02-21T05:26:47;36.08;;;17.40;;
52786;SDS011;38661;53.152;5.846;2023-02-21T05:29:13;34.78;;;17.88;;
52786;SDS011;38661;53.152;5.846;2023-02-21T05:31:39;37.22;;;20.77;;
52786;SDS011;38661;53.152;5.846;2023-02-21T05:34:05;31.17;;;20.20;;
52786;SDS011;38661;53.152;5.846;2023-02-21T05:36:30;38.03;;;19.35;;
52786;SDS011;38661;53.152;5.846;2023-02-21T05:38:56;37.42;;;19.85;;
52786;SDS011;38661;53.152;5.846;2023-02-21T05:41:22;33.15;;;17.50;;
52786;SDS011;38661;53.152;5.846;2023-02-21T05:43:48;34.97;;;19.13;;
52786;SDS011;38661;53.152;5.846;2023-02-21T05:46:18;38.83;;;19.05;;
52786;SDS011;38661;53.152;5.846;2023-02-21T05:48:50;32.75;;;19.15;;
52786;SDS011;38661;53.152;5.846;2023-02-21T05:51:17;29.90;;;17.10;;
52786;SDS011;38661;53.152;5.846;2023-02-21T05:53:43;37.05;;;19.08;;
52786;SDS011;38661;53.152;5.846;2023-02-21T05:56:09;33.72;;;19.25;;
52786;SDS011;38661;53.152;5.846;2023-02-21T05:58:36;32.40;;;18.52;;
52786;SDS011;38661;53.152;5.846;2023-02-21T06:01:01;38.40;;;18.40;;
52786;SDS011;38661;53.152;5.846;2023-02-21T06:03:28;34.55;;;18.80;;
52786;SDS011;38661;53.152;5.846;2023-02-21T06:05:54;34.95;;;19.77;;
52786;SDS011;38661;53.152;5.846;2023-02-21T06:08:19;39.78;;;19.00;;
52786;SDS011;38661;53.152;5.846;2023-02-21T06:10:45;39.25;;;20.63;;
52786;SDS011;38661;53.152;5.846;2023-02-21T06:13:11;38.38;;;20.67;;
52786;SDS011;38661;53.152;5.846;2023-02-21T06:15:36;38.25;;;18.13;;
52786;SDS011;38661;53.152;5.846;2023-02-21T06:18:02;43.72;;;20.50;;
52786;SDS011;38661;53.152;5.846;2023-02-21T06:20:28;36.97;;;19.27;;
52786;SDS011;38661;53.152;5.846;2023-02-21T06:22:54;32.50;;;19.33;;
52786;SDS011;38661;53.152;5.846;2023-02-21T06:25:19;37.10;;;20.33;;
52786;SDS011;38661;53.152;5.846;2023-02-21T06:27:45;34.42;;;19.58;;
52786;SDS011;38661;53.152;5.846;2023-02-21T06:30:11;34.80;;;19.70;;
52786;SDS011;38661;53.152;5.846;2023-02-21T06:32:37;38.20;;;20.35;;
52786;SDS011;38661;53.152;5.846;2023-02-21T06:35:03;38.67;;;21.02;;
52786;SDS011;38661;53.152;5.846;2023-02-21T06:37:29;40.92;;;20.02;;
52786;SDS011;38661;53.152;5.846;2023-02-21T06:39:54;32.92;;;19.02;;
52786;SDS011;38661;53.152;5.846;2023-02-21T06:42:20;38.17;;;19.40;;
52786;SDS011;38661;53.152;5.846;2023-02-21T06:44:47;35.47;;;19.60;;
52786;SDS011;38661;53.152;5.846;2023-02-21T06:47:13;33.92;;;18.15;;
52786;SDS011;38661;53.152;5.846;2023-02-21T06:49:40;33.60;;;20.42;;
52786;SDS011;38661;53.152;5.846;2023-02-21T06:52:06;35.45;;;18.95;;
52786;SDS011;38661;53.152;5.846;2023-02-21T06:54:32;36.88;;;19.00;;
52786;SDS011;38661;53.152;5.846;2023-02-21T06:56:58;36.72;;;19.42;;
52786;SDS011;38661;53.152;5.846;2023-02-21T06:59:26;35.20;;;19.48;;
52786;SDS011;38661;53.152;5.846;2023-02-21T07:01:52;33.22;;;19.75;;
52786;SDS011;38661;53.152;5.846;2023-02-21T07:04:18;41.22;;;22.45;;
52786;SDS011;38661;53.152;5.846;2023-02-21T07:06:44;33.58;;;20.20;;
52786;SDS011;38661;53.152;5.846;2023-02-21T07:09:10;36.70;;;19.92;;
52786;SDS011;38661;53.152;5.846;2023-02-21T07:11:36;41.85;;;22.77;;
52786;SDS011;38661;53.152;5.846;2023-02-21T07:14:02;42.05;;;22.65;;
52786;SDS011;38661;53.152;5.846;2023-02-21T07:16:28;41.65;;;22.60;;
52786;SDS011;38661;53.152;5.846;2023-02-21T07:18:54;43.53;;;22.67;;
52786;SDS011;38661;53.152;5.846;2023-02-21T07:21:19;39.47;;;22.35;;
52786;SDS011;38661;53.152;5.846;2023-02-21T07:23:46;40.05;;;21.08;;
52786;SDS011;38661;53.152;5.846;2023-02-21T07:26:12;44.10;;;24.20;;
52786;SDS011;38661;53.152;5.846;2023-02-21T07:28:39;42.72;;;22.10;;
52786;SDS011;38661;53.152;5.846;2023-02-21T07:31:04;40.60;;;21.40;;
52786;SDS011;38661;53.152;5.846;2023-02-21T07:33:30;43.00;;;22.30;;
52786;SDS011;38661;53.152;5.846;2023-02-21T07:35:56;40.22;;;23.17;;
52786;SDS011;38661;53.152;5.846;2023-02-21T07:38:22;38.30;;;21.60;;
52786;SDS011;38661;53.152;5.846;2023-02-21T07:40:50;38.25;;;19.90;;
52786;SDS011;38661;53.152;5.846;2023-02-21T07:43:18;42.90;;;22.83;;
52786;SDS011;38661;53.152;5.846;2023-02-21T07:45:44;41.22;;;21.70;;
52786;SDS011;38661;53.152;5.846;2023-02-21T07:48:10;39.50;;;22.42;;
52786;SDS011;38661;53.152;5.846;2023-02-21T07:50:39;43.45;;;23.15;;
52786;SDS011;38661;53.152;5.846;2023-02-21T07:53:05;40.65;;;20.52;;
52786;SDS011;38661;53.152;5.846;2023-02-21T07:55:31;44.33;;;24.90;;
52786;SDS011;38661;53.152;5.846;2023-02-21T07:57:57;40.60;;;21.85;;
52786;SDS011;38661;53.152;5.846;2023-02-21T08:00:23;38.42;;;21.48;;
52786;SDS011;38661;53.152;5.846;2023-02-21T08:02:50;45.67;;;22.95;;
52786;SDS011;38661;53.152;5.846;2023-02-21T08:05:16;38.47;;;20.80;;
52786;SDS011;38661;53.152;5.846;2023-02-21T08:07:44;38.47;;;21.60;;
52786;SDS011;38661;53.152;5.846;2023-02-21T08:10:10;39.75;;;23.55;;
52786;SDS011;38661;53.152;5.846;2023-02-21T08:12:37;39.33;;;21.35;;
52786;SDS011;38661;53.152;5.846;2023-02-21T08:15:02;36.40;;;21.95;;
52786;SDS011;38661;53.152;5.846;2023-02-21T08:17:30;43.05;;;21.70;;
52786;SDS011;38661;53.152;5.846;2023-02-21T08:19:56;37.90;;;22.60;;
52786;SDS011;38661;53.152;5.846;2023-02-21T08:22:21;41.00;;;20.17;;
52786;SDS011;38661;53.152;5.846;2023-02-21T08:24:48;41.03;;;22.08;;
52786;SDS011;38661;53.152;5.846;2023-02-21T08:27:14;41.28;;;22.13;;
52786;SDS011;38661;53.152;5.846;2023-02-21T08:29:40;36.47;;;21.08;;
52786;SDS011;38661;53.152;5.846;2023-02-21T08:32:06;40.60;;;22.13;;
52786;SDS011;38661;53.152;5.846;2023-02-21T08:34:33;32.92;;;19.55;;
52786;SDS011;38661;53.152;5.846;2023-02-21T08:36:58;36.75;;;20.58;;
52786;SDS011;38661;53.152;5.846;2023-02-21T08:39:24;40.55;;;21.92;;
52786;SDS011;38661;53.152;5.846;2023-02-21T08:41:54;36.63;;;20.55;;
52786;SDS011;38661;53.152;5.846;2023-02-21T08:44:20;32.95;;;19.02;;
52786;SDS011;38661;53.152;5.846;2023-02-21T08:46:46;39.45;;;20.58;;
52786;SDS011;38661;53.152;5.846;2023-02-21T08:49:12;39.03;;;21.02;;
52786;SDS011;38661;53.152;5.846;2023-02-21T08:51:38;32.40;;;20.73;;
52786;SDS011;38661;53.152;5.846;2023-02-21T08:54:04;37.05;;;19.35;;
52786;SDS011;38661;53.152;5.846;2023-02-21T08:56:31;34.67;;;19.83;;
52786;SDS011;38661;53.152;5.846;2023-02-21T08:58:58;32.13;;;21.00;;
52786;SDS011;38661;53.152;5.846;2023-02-21T09:01:29;29.27;;;17.55;;
52786;SDS011;38661;53.152;5.846;2023-02-21T09:03:59;34.30;;;18.52;;
52786;SDS011;38661;53.152;5.846;2023-02-21T09:06:25;36.63;;;21.60;;
52786;SDS011;38661;53.152;5.846;2023-02-21T09:08:51;32.20;;;20.05;;
52786;SDS011;38661;53.152;5.846;2023-02-21T09:11:17;33.90;;;19.20;;
52786;SDS011;38661;53.152;5.846;2023-02-21T09:13:42;33.08;;;19.27;;
52786;SDS011;38661;53.152;5.846;2023-02-21T09:16:08;31.42;;;17.58;;
52786;SDS011;38661;53.152;5.846;2023-02-21T09:18:34;30.80;;;17.35;;
52786;SDS011;38661;53.152;5.846;2023-02-21T09:20:59;33.53;;;20.58;;
52786;SDS011;38661;53.152;5.846;2023-02-21T09:23:26;30.60;;;18.75;;
52786;SDS011;38661;53.152;5.846;2023-02-21T09:25:54;31.85;;;17.13;;
52786;SDS011;38661;53.152;5.846;2023-02-21T09:28:20;35.58;;;19.25;;
52786;SDS011;38661;53.152;5.846;2023-02-21T09:30:46;31.58;;;18.85;;
52786;SDS011;38661;53.152;5.846;2023-02-21T09:33:13;30.75;;;18.85;;
52786;SDS011;38661;53.152;5.846;2023-02-21T09:35:39;31.70;;;18.15;;
52786;SDS011;38661;53.152;5.846;2023-02-21T09:38:06;27.13;;;16.73;;
52786;SDS011;38661;53.152;5.846;2023-02-21T09:40:39;28.45;;;16.27;;
52786;SDS011;38661;53.152;5.846;2023-02-21T09:48:55;26.35;;;15.65;;
52786;SDS011;38661;53.152;5.846;2023-02-21T09:51:21;34.58;;;17.45;;
52786;SDS011;38661;53.152;5.846;2023-02-21T09:53:49;30.10;;;16.92;;
52786;SDS011;38661;53.152;5.846;2023-02-21T09:56:25;28.45;;;16.92;;
52786;SDS011;38661;53.152;5.846;2023-02-21T09:58:53;31.63;;;19.05;;
52786;SDS011;38661;53.152;5.846;2023-02-21T10:01:30;25.17;;;15.73;;
52786;SDS011;38661;53.152;5.846;2023-02-21T10:12:58;29.83;;;15.50;;
52786;SDS011;38661;53.152;5.846;2023-02-21T10:15:51;29.85;;;17.85;;
52786;SDS011;38661;53.152;5.846;2023-02-21T10:21:14;28.10;;;16.67;;
52786;SDS011;38661;53.152;5.846;2023-02-21T10:23:49;25.23;;;15.50;;
52786;SDS011;38661;53.152;5.846;2023-02-21T10:26:17;27.40;;;16.42;;
52786;SDS011;38661;53.152;5.846;2023-02-21T10:28:48;23.42;;;15.75;;
52786;SDS011;38661;53.152;5.846;2023-02-21T10:31:22;27.35;;;16.92;;
52786;SDS011;38661;53.152;5.846;2023-02-21T10:33:54;27.65;;;17.70;;
52786;SDS011;38661;53.152;5.846;2023-02-21T10:36:21;24.85;;;15.95;;
52786;SDS011;38661;53.152;5.846;2023-02-21T10:38:57;25.10;;;15.40;;
52786;SDS011;38661;53.152;5.846;2023-02-21T10:41:31;25.23;;;16.80;;
52786;SDS011;38661;53.152;5.846;2023-02-21T10:44:03;24.95;;;16.52;;
52786;SDS011;38661;53.152;5.846;2023-02-21T10:47:00;27.67;;;17.65;;
52786;SDS011;38661;53.152;5.846;2023-02-21T10:50:06;26.30;;;15.68;;
52786;SDS011;38661;53.152;5.846;2023-02-21T10:53:19;26.33;;;15.98;;
52786;SDS011;38661;53.152;5.846;2023-02-21T10:55:28;25.95;;;14.80;;
52786;SDS011;38661;53.152;5.846;2023-02-21T10:57:57;26.30;;;16.02;;
52786;SDS011;38661;53.152;5.846;2023-02-21T11:03:12;26.10;;;16.13;;
52786;SDS011;38661;53.152;5.846;2023-02-21T11:05:51;21.08;;;15.35;;
52786;SDS011;38661;53.152;5.846;2023-02-21T11:08:38;22.77;;;14.88;;
52786;SDS011;38661;53.152;5.846;2023-02-21T11:11:05;25.15;;;16.63;;
52786;SDS011;38661;53.152;5.846;2023-02-21T11:13:32;25.65;;;16.70;;
52786;SDS011;38661;53.152;5.846;2023-02-21T11:18:35;30.00;;;15.98;;
52786;SDS011;38661;53.152;5.846;2023-02-21T11:23:36;26.75;;;15.32;;
52786;SDS011;38661;53.152;5.846;2023-02-21T11:26:05;25.35;;;15.18;;
52786;SDS011;38661;53.152;5.846;2023-02-21T11:28:37;23.15;;;14.63;;
52786;SDS011;38661;53.152;5.846;2023-02-21T11:33:53;20.77;;;14.07;;
52786;SDS011;38661;53.152;5.846;2023-02-21T11:36:25;22.38;;;14.63;;
52786;SDS011;38661;53.152;5.846;2023-02-21T11:39:00;23.13;;;13.63;;
52786;SDS011;38661;53.152;5.846;2023-02-21T11:43:55;22.48;;;13.80;;
52786;SDS011;38661;53.152;5.846;2023-02-21T11:52:01;24.48;;;14.50;;
52786;SDS011;38661;53.152;5.846;2023-02-21T11:54:33;20.25;;;13.73;;
52786;SDS011;38661;53.152;5.846;2023-02-21T11:59:45;21.48;;;14.15;;
52786;SDS011;38661;53.152;5.846;2023-02-21T12:02:42;21.35;;;13.40;;
52786;SDS011;38661;53.152;5.846;2023-02-21T12:05:36;26.70;;;14.75;;
52786;SDS011;38661;53.152;5.846;2023-02-21T12:10:55;20.23;;;13.18;;
52786;SDS011;38661;53.152;5.846;2023-02-21T12:14:11;18.38;;;12.50;;
52786;SDS011;38661;53.152;5.846;2023-02-21T12:16:41;24.45;;;14.55;;
52786;SDS011;38661;53.152;5.846;2023-02-21T12:22:01;23.33;;;16.30;;
52786;SDS011;38661;53.152;5.846;2023-02-21T12:24:52;20.52;;;13.95;;
52786;SDS011;38661;53.152;5.846;2023-02-21T12:27:56;22.58;;;15.25;;
52786;SDS011;38661;53.152;5.846;2023-02-21T12:30:51;24.77;;;15.55;;
52786;SDS011;38661;53.152;5.846;2023-02-21T12:33:30;21.60;;;13.95;;
52786;SDS011;38661;53.152;5.846;2023-02-21T12:36:14;21.15;;;15.23;;
52786;SDS011;38661;53.152;5.846;2023-02-21T12:39:10;19.00;;;13.57;;
52786;SDS011;38661;53.152;5.846;2023-02-21T12:44:23;22.23;;;16.65;;
52786;SDS011;38661;53.152;5.846;2023-02-21T12:47:15;21.05;;;14.55;;
52786;SDS011;38661;53.152;5.846;2023-02-21T12:50:22;19.33;;;13.65;;
52786;SDS011;38661;53.152;5.846;2023-02-21T12:55:27;20.10;;;14.07;;
52786;SDS011;38661;53.152;5.846;2023-02-21T12:58:00;21.05;;;14.55;;
52786;SDS011;38661;53.152;5.846;2023-02-21T13:00:44;19.73;;;14.70;;
52786;SDS011;38661;53.152;5.846;2023-02-21T13:06:07;24.55;;;15.63;;
52786;SDS011;38661;53.152;5.846;2023-02-21T13:11:40;21.35;;;14.68;;
52786;SDS011;38661;53.152;5.846;2023-02-21T13:14:44;20.83;;;14.68;;
52786;SDS011;38661;53.152;5.846;2023-02-21T13:17:26;20.20;;;14.70;;
52786;SDS011;38661;53.152;5.846;2023-02-21T13:19:53;22.00;;;16.00;;
52786;SDS011;38661;53.152;5.846;2023-02-21T13:22:24;25.73;;;16.48;;
52786;SDS011;38661;53.152;5.846;2023-02-21T13:28:35;21.05;;;16.13;;
52786;SDS011;38661;53.152;5.846;2023-02-21T13:31:05;22.90;;;17.05;;
52786;SDS011;38661;53.152;5.846;2023-02-21T13:33:49;21.73;;;16.58;;
52786;SDS011;38661;53.152;5.846;2023-02-21T13:42:09;21.60;;;14.05;;
52786;SDS011;38661;53.152;5.846;2023-02-21T13:44:41;25.02;;;16.08;;
52786;SDS011;38661;53.152;5.846;2023-02-21T13:47:14;23.33;;;15.90;;
52786;SDS011;38661;53.152;5.846;2023-02-21T13:57:50;28.25;;;18.83;;
52786;SDS011;38661;53.152;5.846;2023-02-21T14:03:32;23.58;;;15.77;;
52786;SDS011;38661;53.152;5.846;2023-02-21T14:08:11;21.98;;;14.98;;
52786;SDS011;38661;53.152;5.846;2023-02-21T14:13:17;25.45;;;15.02;;
52786;SDS011;38661;53.152;5.846;2023-02-21T14:16:08;21.92;;;14.50;;
52786;SDS011;38661;53.152;5.846;2023-02-21T14:21:21;23.83;;;14.88;;
52786;SDS011;38661;53.152;5.846;2023-02-21T14:23:51;19.58;;;13.93;;
52786;SDS011;38661;53.152;5.846;2023-02-21T14:27:30;24.95;;;15.10;;
52786;SDS011;38661;53.152;5.846;2023-02-21T14:31:56;27.65;;;18.50;;
52786;SDS011;38661;53.152;5.846;2023-02-21T14:36:57;24.85;;;16.95;;
52786;SDS011;38661;53.152;5.846;2023-02-21T14:39:33;22.02;;;16.38;;
52786;SDS011;38661;53.152;5.846;2023-02-21T14:42:07;24.25;;;15.85;;
52786;SDS011;38661;53.152;5.846;2023-02-21T14:44:53;23.20;;;15.32;;
52786;SDS011;38661;53.152;5.846;2023-02-21T14:52:51;22.65;;;16.15;;
52786;SDS011;38661;53.152;5.846;2023-02-21T15:06:42;22.05;;;16.00;;
52786;SDS011;38661;53.152;5.846;2023-02-21T15:09:18;29.52;;;20.60;;
52786;SDS011;38661;53.152;5.846;2023-02-21T15:11:45;25.50;;;19.00;;
52786;SDS011;38661;53.152;5.846;2023-02-21T15:14:20;29.42;;;23.85;;
52786;SDS011;38661;53.152;5.846;2023-02-21T15:16:55;26.38;;;19.77;;
52786;SDS011;38661;53.152;5.846;2023-02-21T15:27:25;21.25;;;16.45;;
52786;SDS011;38661;53.152;5.846;2023-02-21T15:30:07;23.35;;;16.63;;
52786;SDS011;38661;53.152;5.846;2023-02-21T15:32:55;19.45;;;15.50;;
52786;SDS011;38661;53.152;5.846;2023-02-21T15:35:21;22.33;;;14.45;;
52786;SDS011;38661;53.152;5.846;2023-02-21T15:37:50;19.48;;;14.65;;
52786;SDS011;38661;53.152;5.846;2023-02-21T15:40:19;18.42;;;14.80;;
52786;SDS011;38661;53.152;5.846;2023-02-21T15:42:48;23.30;;;15.73;;
52786;SDS011;38661;53.152;5.846;2023-02-21T15:45:16;23.33;;;15.95;;
52786;SDS011;38661;53.152;5.846;2023-02-21T15:47:48;21.95;;;15.85;;
52786;SDS011;38661;53.152;5.846;2023-02-21T15:50:34;25.40;;;18.00;;
52786;SDS011;38661;53.152;5.846;2023-02-21T15:55:44;26.90;;;18.83;;
52786;SDS011;38661;53.152;5.846;2023-02-21T15:58:16;27.70;;;18.13;;
52786;SDS011;38661;53.152;5.846;2023-02-21T16:00:48;23.55;;;16.15;;
52786;SDS011;38661;53.152;5.846;2023-02-21T16:11:49;23.40;;;17.65;;
52786;SDS011;38661;53.152;5.846;2023-02-21T16:17:22;25.35;;;17.25;;
52786;SDS011;38661;53.152;5.846;2023-02-21T16:19:53;24.70;;;17.02;;
52786;SDS011;38661;53.152;5.846;2023-02-21T16:25:05;22.85;;;16.30;;
52786;SDS011;38661;53.152;5.846;2023-02-21T16:27:34;24.95;;;17.45;;
52786;SDS011;38661;53.152;5.846;2023-02-21T16:30:00;29.25;;;19.88;;
52786;SDS011;38661;53.152;5.846;2023-02-21T16:32:26;26.30;;;18.60;;
52786;SDS011;38661;53.152;5.846;2023-02-21T16:34:52;25.10;;;18.73;;
52786;SDS011;38661;53.152;5.846;2023-02-21T16:37:19;26.50;;;17.70;;
52786;SDS011;38661;53.152;5.846;2023-02-21T16:39:46;26.15;;;18.38;;
52786;SDS011;38661;53.152;5.846;2023-02-21T16:42:13;29.83;;;20.75;;
52786;SDS011;38661;53.152;5.846;2023-02-21T16:44:41;29.77;;;21.08;;
52786;SDS011;38661;53.152;5.846;2023-02-21T16:47:10;34.10;;;22.48;;
52786;SDS011;38661;53.152;5.846;2023-02-21T16:49:39;34.15;;;22.83;;
52786;SDS011;38661;53.152;5.846;2023-02-21T16:52:08;29.95;;;20.65;;
52786;SDS011;38661;53.152;5.846;2023-02-21T16:54:38;28.38;;;21.02;;
52786;SDS011;38661;53.152;5.846;2023-02-21T16:57:03;31.75;;;21.00;;
52786;SDS011;38661;53.152;5.846;2023-02-21T16:59:29;28.70;;;19.63;;
52786;SDS011;38661;53.152;5.846;2023-02-21T17:01:55;34.38;;;23.88;;
52786;SDS011;38661;53.152;5.846;2023-02-21T17:04:22;34.03;;;22.75;;
52786;SDS011;38661;53.152;5.846;2023-02-21T17:06:58;32.60;;;21.67;;
52786;SDS011;38661;53.152;5.846;2023-02-21T17:09:27;40.22;;;25.63;;
52786;SDS011;38661;53.152;5.846;2023-02-21T17:11:54;34.90;;;23.58;;
52786;SDS011;38661;53.152;5.846;2023-02-21T17:14:21;40.08;;;25.65;;
52786;SDS011;38661;53.152;5.846;2023-02-21T17:16:47;37.70;;;24.42;;
52786;SDS011;38661;53.152;5.846;2023-02-21T17:19:13;36.00;;;24.00;;
52786;SDS011;38661;53.152;5.846;2023-02-21T17:21:42;36.70;;;24.25;;
52786;SDS011;38661;53.152;5.846;2023-02-21T17:24:08;36.40;;;23.20;;
52786;SDS011;38661;53.152;5.846;2023-02-21T17:26:35;39.53;;;23.83;;
52786;SDS011;38661;53.152;5.846;2023-02-21T17:29:02;34.65;;;21.83;;
52786;SDS011;38661;53.152;5.846;2023-02-21T17:31:28;35.40;;;22.33;;
52786;SDS011;38661;53.152;5.846;2023-02-21T17:33:54;33.28;;;21.67;;
52786;SDS011;38661;53.152;5.846;2023-02-21T17:36:21;33.28;;;21.25;;
52786;SDS011;38661;53.152;5.846;2023-02-21T17:38:48;29.27;;;20.17;;
52786;SDS011;38661;53.152;5.846;2023-02-21T17:41:14;32.65;;;21.55;;
52786;SDS011;38661;53.152;5.846;2023-02-21T17:43:40;33.55;;;21.55;;